sensor_id;sensor_type;location;lat;lon;timestamp;pressure;altitude;pressure_sealevel;temperature;humidity
40982;BME280;26708;50.304;19.028;2023-02-11T00:01:10;99872.13;;;0.34;52.77
40982;BME280;26708;50.304;19.028;2023-02-11T00:03:23;99862.78;;;0.36;52.82
40982;BME280;26708;50.304;19.028;2023-02-11T00:05:29;99957.88;;;0.91;52.97
40982;BME280;26708;50.304;19.028;2023-02-11T00:07:43;99801.03;;;-0.07;53.10
40982;BME280;26708;50.304;19.028;2023-02-11T00:09:50;99797.28;;;-0.12;53.11
40982;BME280;26708;50.304;19.028;2023-02-11T00:11:56;99677.72;;;-0.76;53.21
40982;BME280;26708;50.304;19.028;2023-02-11T00:14:13;99767.94;;;-0.30;53.36
40982;BME280;26708;50.304;19.028;2023-02-11T00:16:30;99998.56;;;0.97;53.54
40982;BME280;26708;50.304;19.028;2023-02-11T00:18:45;99794.81;;;-0.10;53.53
40982;BME280;26708;50.304;19.028;2023-02-11T00:20:54;99923.44;;;0.60;53.71
40982;BME280;26708;50.304;19.028;2023-02-11T00:23:03;99981.31;;;0.96;53.57
40982;BME280;26708;50.304;19.028;2023-02-11T00:25:09;99792.03;;;-0.13;53.67
40982;BME280;26708;50.304;19.028;2023-02-11T00:27:17;99672.31;;;-0.81;53.62
40982;BME280;26708;50.304;19.028;2023-02-11T00:29:27;99875.56;;;0.35;53.80
40982;BME280;26708;50.304;19.028;2023-02-11T00:31:33;99971.13;;;0.97;53.67
40982;BME280;26708;50.304;19.028;2023-02-11T00:33:44;99830.31;;;0.24;53.78
40982;BME280;26708;50.304;19.028;2023-02-11T00:35:52;99736.00;;;-0.33;53.77
40982;BME280;26708;50.304;19.028;2023-02-11T00:38:01;99885.66;;;0.61;53.74
40982;BME280;26708;50.304;19.028;2023-02-11T00:40:09;99860.47;;;0.41;53.82
40982;BME280;26708;50.304;19.028;2023-02-11T00:42:19;99904.16;;;0.68;53.91
40982;BME280;26708;50.304;19.028;2023-02-11T00:44:27;99817.94;;;0.18;53.78
40982;BME280;26708;50.304;19.028;2023-02-11T00:46:33;99805.72;;;0.15;53.80
40982;BME280;26708;50.304;19.028;2023-02-11T00:48:56;99885.75;;;0.62;53.78
40982;BME280;26708;50.304;19.028;2023-02-11T00:51:05;99781.84;;;0.03;53.92
40982;BME280;26708;50.304;19.028;2023-02-11T00:53:11;99895.63;;;0.69;53.96
40982;BME280;26708;50.304;19.028;2023-02-11T00:55:17;99825.06;;;0.23;54.01
40982;BME280;26708;50.304;19.028;2023-02-11T00:57:21;99917.72;;;0.80;54.13
40982;BME280;26708;50.304;19.028;2023-02-11T00:59:27;99881.50;;;0.63;54.11
40982;BME280;26708;50.304;19.028;2023-02-11T01:01:34;99664.91;;;-0.62;54.18
40982;BME280;26708;50.304;19.028;2023-02-11T01:03:39;99887.44;;;0.76;54.13
40982;BME280;26708;50.304;19.028;2023-02-11T01:05:46;99808.47;;;0.17;54.44
40982;BME280;26708;50.304;19.028;2023-02-11T01:07:52;99716.84;;;-0.38;54.77
40982;BME280;26708;50.304;19.028;2023-02-11T01:09:57;99839.25;;;0.30;54.82
40982;BME280;26708;50.304;19.028;2023-02-11T01:12:04;99781.41;;;-0.19;55.04
40982;BME280;26708;50.304;19.028;2023-02-11T01:14:10;99703.63;;;-0.44;55.14
40982;BME280;26708;50.304;19.028;2023-02-11T01:16:16;99766.69;;;-0.07;55.46
40982;BME280;26708;50.304;19.028;2023-02-11T01:18:23;99858.28;;;0.47;55.43
40982;BME280;26708;50.304;19.028;2023-02-11T01:20:29;99622.38;;;-0.86;55.59
40982;BME280;26708;50.304;19.028;2023-02-11T01:22:41;99774.41;;;-0.07;55.69
40982;BME280;26708;50.304;19.028;2023-02-11T01:24:50;99635.22;;;-0.86;55.63
40982;BME280;26708;50.304;19.028;2023-02-11T01:26:58;99754.63;;;-0.23;55.86
40982;BME280;26708;50.304;19.028;2023-02-11T01:29:05;99721.25;;;-0.65;56.05
40982;BME280;26708;50.304;19.028;2023-02-11T01:31:09;99690.56;;;-0.76;56.09
40982;BME280;26708;50.304;19.028;2023-02-11T01:33:15;99830.28;;;0.10;55.95
40982;BME280;26708;50.304;19.028;2023-02-11T01:35:21;99848.22;;;0.23;55.72
40982;BME280;26708;50.304;19.028;2023-02-11T01:37:25;99856.13;;;0.54;55.90
40982;BME280;26708;50.304;19.028;2023-02-11T01:39:35;99816.56;;;0.38;55.68
40982;BME280;26708;50.304;19.028;2023-02-11T01:41:40;99799.75;;;0.30;55.68
40982;BME280;26708;50.304;19.028;2023-02-11T01:43:47;99814.44;;;0.31;55.56
40982;BME280;26708;50.304;19.028;2023-02-11T01:46:00;99723.41;;;-0.14;55.55
40982;BME280;26708;50.304;19.028;2023-02-11T01:48:19;99833.69;;;0.37;55.59
40982;BME280;26708;50.304;19.028;2023-02-11T01:50:28;99688.03;;;-0.33;55.60
40982;BME280;26708;50.304;19.028;2023-02-11T01:52:36;99743.25;;;0.03;55.48
40982;BME280;26708;50.304;19.028;2023-02-11T01:54:51;99686.09;;;-0.22;55.71
40982;BME280;26708;50.304;19.028;2023-02-11T01:57:10;99793.72;;;0.44;55.51
40982;BME280;26708;50.304;19.028;2023-02-11T01:59:31;99812.78;;;0.47;55.48
40982;BME280;26708;50.304;19.028;2023-02-11T02:01:48;99826.03;;;0.53;55.54
40982;BME280;26708;50.304;19.028;2023-02-11T02:04:02;99671.91;;;-0.30;55.54
40982;BME280;26708;50.304;19.028;2023-02-11T02:06:17;99656.38;;;-0.32;55.33
40982;BME280;26708;50.304;19.028;2023-02-11T02:08:33;99660.56;;;-0.34;55.33
40982;BME280;26708;50.304;19.028;2023-02-11T02:10:50;99673.41;;;-0.19;55.67
40982;BME280;26708;50.304;19.028;2023-02-11T02:13:04;99730.47;;;0.18;55.47
40982;BME280;26708;50.304;19.028;2023-02-11T02:15:28;99689.97;;;0.00;55.45
40982;BME280;26708;50.304;19.028;2023-02-11T02:17:49;99747.84;;;0.37;55.62
40982;BME280;26708;50.304;19.028;2023-02-11T02:20:31;99665.97;;;-0.15;55.76
40982;BME280;26708;50.304;19.028;2023-02-11T02:23:15;99673.06;;;-0.25;55.89
40982;BME280;26708;50.304;19.028;2023-02-11T02:25:55;99615.34;;;-0.59;56.29
40982;BME280;26708;50.304;19.028;2023-02-11T02:31:41;99778.81;;;0.38;56.79
40982;BME280;26708;50.304;19.028;2023-02-11T02:34:11;99729.44;;;0.15;56.68
40982;BME280;26708;50.304;19.028;2023-02-11T02:36:30;99770.13;;;0.36;56.77
40982;BME280;26708;50.304;19.028;2023-02-11T02:38:47;99717.72;;;0.06;56.69
40982;BME280;26708;50.304;19.028;2023-02-11T02:41:05;99618.47;;;-0.36;56.62
40982;BME280;26708;50.304;19.028;2023-02-11T02:43:14;99758.13;;;0.51;56.53
40982;BME280;26708;50.304;19.028;2023-02-11T02:45:22;99501.38;;;-0.90;56.32
40982;BME280;26708;50.304;19.028;2023-02-11T02:47:28;99690.34;;;0.22;56.49
40982;BME280;26708;50.304;19.028;2023-02-11T02:49:37;99522.59;;;-0.64;56.45
40982;BME280;26708;50.304;19.028;2023-02-11T02:51:59;99691.06;;;0.34;56.51
40982;BME280;26708;50.304;19.028;2023-02-11T02:57:28;99671.16;;;0.31;56.31
40982;BME280;26708;50.304;19.028;2023-02-11T02:59:50;99724.59;;;0.66;56.25
40982;BME280;26708;50.304;19.028;2023-02-11T03:02:16;99596.94;;;-0.07;56.29
40982;BME280;26708;50.304;19.028;2023-02-11T03:04:40;99677.84;;;0.58;56.18
40982;BME280;26708;50.304;19.028;2023-02-11T03:07:01;99585.56;;;0.04;55.75
40982;BME280;26708;50.304;19.028;2023-02-11T03:09:18;99531.09;;;-0.20;55.49
40982;BME280;26708;50.304;19.028;2023-02-11T03:11:32;99549.13;;;-0.04;55.42
40982;BME280;26708;50.304;19.028;2023-02-11T03:13:42;99589.97;;;0.06;55.38
40982;BME280;26708;50.304;19.028;2023-02-11T03:15:53;99723.69;;;0.96;55.27
40982;BME280;26708;50.304;19.028;2023-02-11T03:18:05;99683.03;;;0.90;55.02
40982;BME280;26708;50.304;19.028;2023-02-11T03:20:22;99498.88;;;-0.13;54.65
40982;BME280;26708;50.304;19.028;2023-02-11T03:22:34;99678.44;;;0.85;54.52
40982;BME280;26708;50.304;19.028;2023-02-11T03:24:45;99643.16;;;0.68;54.21
40982;BME280;26708;50.304;19.028;2023-02-11T03:26:55;99705.56;;;1.10;54.15
40982;BME280;26708;50.304;19.028;2023-02-11T03:29:11;99560.13;;;0.24;54.12
40982;BME280;26708;50.304;19.028;2023-02-11T03:31:29;99724.25;;;1.22;53.88
40982;BME280;26708;50.304;19.028;2023-02-11T03:33:50;99713.22;;;1.25;53.71
40982;BME280;26708;50.304;19.028;2023-02-11T03:36:07;99702.81;;;1.23;53.52
40982;BME280;26708;50.304;19.028;2023-02-11T03:38:21;99706.31;;;1.24;53.67
40982;BME280;26708;50.304;19.028;2023-02-11T03:40:35;99558.41;;;0.40;53.33
40982;BME280;26708;50.304;19.028;2023-02-11T03:42:47;99553.34;;;0.42;53.52
40982;BME280;26708;50.304;19.028;2023-02-11T03:44:59;99681.47;;;1.26;53.24
40982;BME280;26708;50.304;19.028;2023-02-11T03:47:11;99666.50;;;1.19;53.31
40982;BME280;26708;50.304;19.028;2023-02-11T03:49:21;99679.13;;;1.30;53.14
40982;BME280;26708;50.304;19.028;2023-02-11T03:51:33;99638.63;;;1.12;52.83
40982;BME280;26708;50.304;19.028;2023-02-11T03:53:44;99656.06;;;1.33;52.79
40982;BME280;26708;50.304;19.028;2023-02-11T03:55:53;99514.59;;;0.55;52.52
40982;BME280;26708;50.304;19.028;2023-02-11T03:58:00;99583.50;;;0.92;52.62
40982;BME280;26708;50.304;19.028;2023-02-11T04:00:08;99414.50;;;0.12;52.53
40982;BME280;26708;50.304;19.028;2023-02-11T04:02:14;99612.75;;;1.26;52.64
40982;BME280;26708;50.304;19.028;2023-02-11T04:04:20;99631.28;;;1.35;52.57
40982;BME280;26708;50.304;19.028;2023-02-11T04:06:25;99590.72;;;1.15;52.51
40982;BME280;26708;50.304;19.028;2023-02-11T04:08:32;99590.47;;;1.11;52.56
40982;BME280;26708;50.304;19.028;2023-02-11T04:10:38;99418.75;;;0.11;52.47
40982;BME280;26708;50.304;19.028;2023-02-11T04:12:43;99575.13;;;1.12;52.34
40982;BME280;26708;50.304;19.028;2023-02-11T04:14:47;99546.72;;;0.95;52.46
40982;BME280;26708;50.304;19.028;2023-02-11T04:16:53;99593.75;;;1.24;52.34
40982;BME280;26708;50.304;19.028;2023-02-11T04:18:57;99523.00;;;0.84;52.54
40982;BME280;26708;50.304;19.028;2023-02-11T04:21:02;99563.00;;;1.11;52.46
40982;BME280;26708;50.304;19.028;2023-02-11T04:23:08;99563.91;;;1.12;52.53
40982;BME280;26708;50.304;19.028;2023-02-11T04:25:17;99556.06;;;0.93;52.52
40982;BME280;26708;50.304;19.028;2023-02-11T04:27:21;99390.13;;;0.05;52.53
40982;BME280;26708;50.304;19.028;2023-02-11T04:29:27;99499.66;;;0.81;52.47
40982;BME280;26708;50.304;19.028;2023-02-11T04:31:32;99425.88;;;0.32;52.45
40982;BME280;26708;50.304;19.028;2023-02-11T04:33:36;99522.63;;;0.94;52.42
40982;BME280;26708;50.304;19.028;2023-02-11T04:35:42;99419.16;;;0.34;52.40
40982;BME280;26708;50.304;19.028;2023-02-11T04:37:46;99423.75;;;0.24;52.51
40982;BME280;26708;50.304;19.028;2023-02-11T04:39:51;99604.28;;;1.29;52.57
40982;BME280;26708;50.304;19.028;2023-02-11T04:41:59;99483.53;;;0.52;52.63
40982;BME280;26708;50.304;19.028;2023-02-11T04:44:04;99446.56;;;0.34;52.71
40982;BME280;26708;50.304;19.028;2023-02-11T04:46:09;99576.25;;;1.01;52.81
40982;BME280;26708;50.304;19.028;2023-02-11T04:48:14;99599.94;;;1.28;53.02
40982;BME280;26708;50.304;19.028;2023-02-11T04:50:20;99565.44;;;1.08;52.87
40982;BME280;26708;50.304;19.028;2023-02-11T04:52:24;99578.28;;;1.24;52.78
40982;BME280;26708;50.304;19.028;2023-02-11T04:54:30;99550.56;;;1.03;52.80
40982;BME280;26708;50.304;19.028;2023-02-11T04:56:36;99458.34;;;0.46;52.76
40982;BME280;26708;50.304;19.028;2023-02-11T04:58:44;99553.13;;;1.03;52.79
40982;BME280;26708;50.304;19.028;2023-02-11T05:00:50;99557.94;;;1.13;53.05
40982;BME280;26708;50.304;19.028;2023-02-11T05:02:55;99549.47;;;1.15;52.85
40982;BME280;26708;50.304;19.028;2023-02-11T05:04:59;99516.06;;;0.83;52.88
40982;BME280;26708;50.304;19.028;2023-02-11T05:07:05;99590.19;;;1.38;53.01
40982;BME280;26708;50.304;19.028;2023-02-11T05:09:11;99550.44;;;1.17;52.93
40982;BME280;26708;50.304;19.028;2023-02-11T05:11:20;99430.72;;;0.42;52.97
40982;BME280;26708;50.304;19.028;2023-02-11T05:13:27;99448.94;;;0.63;53.07
40982;BME280;26708;50.304;19.028;2023-02-11T05:15:34;99549.56;;;1.17;53.12
40982;BME280;26708;50.304;19.028;2023-02-11T05:17:39;99363.19;;;0.15;53.28
40982;BME280;26708;50.304;19.028;2023-02-11T05:19:44;99584.47;;;1.28;53.40
40982;BME280;26708;50.304;19.028;2023-02-11T05:21:49;99430.16;;;0.32;53.67
40982;BME280;26708;50.304;19.028;2023-02-11T05:23:53;99439.75;;;0.52;53.67
40982;BME280;26708;50.304;19.028;2023-02-11T05:25:59;99374.94;;;0.10;53.63
40982;BME280;26708;50.304;19.028;2023-02-11T05:28:05;99557.34;;;1.18;53.62
40982;BME280;26708;50.304;19.028;2023-02-11T05:30:11;99403.22;;;0.25;53.78
40982;BME280;26708;50.304;19.028;2023-02-11T05:32:20;99583.94;;;1.17;53.79
40982;BME280;26708;50.304;19.028;2023-02-11T05:34:25;99534.44;;;1.07;53.72
40982;BME280;26708;50.304;19.028;2023-02-11T05:36:29;99591.00;;;1.37;53.77
40982;BME280;26708;50.304;19.028;2023-02-11T05:38:35;99498.41;;;0.73;53.67
40982;BME280;26708;50.304;19.028;2023-02-11T05:40:41;99578.06;;;1.20;53.78
40982;BME280;26708;50.304;19.028;2023-02-11T05:42:46;99575.63;;;1.23;53.99
40982;BME280;26708;50.304;19.028;2023-02-11T05:44:52;99502.47;;;0.86;53.86
40982;BME280;26708;50.304;19.028;2023-02-11T05:46:56;99495.41;;;0.99;53.89
40982;BME280;26708;50.304;19.028;2023-02-11T05:49:04;99325.41;;;0.14;53.66
40982;BME280;26708;50.304;19.028;2023-02-11T05:51:09;99553.41;;;1.60;53.71
40982;BME280;26708;50.304;19.028;2023-02-11T05:53:14;99468.88;;;1.18;53.43
40982;BME280;26708;50.304;19.028;2023-02-11T05:55:18;99497.75;;;1.28;53.49
40982;BME280;26708;50.304;19.028;2023-02-11T05:57:24;99547.09;;;1.53;53.61
40982;BME280;26708;50.304;19.028;2023-02-11T05:59:29;99493.22;;;1.24;53.62
40982;BME280;26708;50.304;19.028;2023-02-11T06:01:33;99537.22;;;1.45;53.78
40982;BME280;26708;50.304;19.028;2023-02-11T06:03:39;99544.50;;;1.53;53.88
40982;BME280;26708;50.304;19.028;2023-02-11T06:05:47;99374.38;;;0.48;53.81
40982;BME280;26708;50.304;19.028;2023-02-11T06:07:52;99445.44;;;0.96;53.91
40982;BME280;26708;50.304;19.028;2023-02-11T06:09:57;99393.75;;;0.75;53.73
40982;BME280;26708;50.304;19.028;2023-02-11T06:12:02;99433.88;;;0.88;53.77
40982;BME280;26708;50.304;19.028;2023-02-11T06:14:07;99533.81;;;1.46;54.07
40982;BME280;26708;50.304;19.028;2023-02-11T06:16:13;99518.94;;;1.40;54.26
40982;BME280;26708;50.304;19.028;2023-02-11T06:18:18;99471.63;;;1.05;54.27
40982;BME280;26708;50.304;19.028;2023-02-11T06:20:22;99484.91;;;1.12;54.40
40982;BME280;26708;50.304;19.028;2023-02-11T06:22:31;99394.63;;;0.58;54.32
40982;BME280;26708;50.304;19.028;2023-02-11T06:24:35;99465.75;;;1.07;54.28
40982;BME280;26708;50.304;19.028;2023-02-11T06:26:40;99477.25;;;1.14;54.45
40982;BME280;26708;50.304;19.028;2023-02-11T06:28:46;99516.22;;;1.37;54.51
40982;BME280;26708;50.304;19.028;2023-02-11T06:30:53;99471.66;;;1.22;54.46
40982;BME280;26708;50.304;19.028;2023-02-11T06:32:58;99498.25;;;1.39;54.57
40982;BME280;26708;50.304;19.028;2023-02-11T06:35:04;99408.44;;;0.60;54.66
40982;BME280;26708;50.304;19.028;2023-02-11T06:37:10;99457.09;;;1.05;54.81
40982;BME280;26708;50.304;19.028;2023-02-11T06:39:17;99465.38;;;1.17;54.81
40982;BME280;26708;50.304;19.028;2023-02-11T06:41:22;99501.69;;;1.39;54.88
40982;BME280;26708;50.304;19.028;2023-02-11T06:43:27;99508.78;;;1.43;54.74
40982;BME280;26708;50.304;19.028;2023-02-11T06:45:31;99377.69;;;0.63;54.70
40982;BME280;26708;50.304;19.028;2023-02-11T06:47:37;99378.81;;;0.68;54.69
40982;BME280;26708;50.304;19.028;2023-02-11T06:49:42;99417.28;;;0.83;54.59
40982;BME280;26708;50.304;19.028;2023-02-11T06:51:47;99489.19;;;1.29;54.62
40982;BME280;26708;50.304;19.028;2023-02-11T06:53:52;99507.97;;;1.44;54.75
40982;BME280;26708;50.304;19.028;2023-02-11T06:56:05;99361.22;;;0.60;54.68
40982;BME280;26708;50.304;19.028;2023-02-11T06:58:14;99405.53;;;0.88;54.65
40982;BME280;26708;50.304;19.028;2023-02-11T07:00:20;99426.22;;;0.89;54.82
40982;BME280;26708;50.304;19.028;2023-02-11T07:02:25;99469.69;;;1.17;54.96
40982;BME280;26708;50.304;19.028;2023-02-11T07:04:29;99453.81;;;0.92;54.99
40982;BME280;26708;50.304;19.028;2023-02-11T07:06:35;99472.53;;;1.05;54.97
40982;BME280;26708;50.304;19.028;2023-02-11T07:08:41;99372.69;;;0.49;55.27
40982;BME280;26708;50.304;19.028;2023-02-11T07:10:46;99519.63;;;1.36;55.14
40982;BME280;26708;50.304;19.028;2023-02-11T07:12:54;99422.84;;;0.90;55.14
40982;BME280;26708;50.304;19.028;2023-02-11T07:14:59;99511.50;;;1.46;55.08
40982;BME280;26708;50.304;19.028;2023-02-11T07:17:03;99422.97;;;0.93;54.91
40982;BME280;26708;50.304;19.028;2023-02-11T07:19:11;99356.66;;;0.72;54.68
40982;BME280;26708;50.304;19.028;2023-02-11T07:21:18;99486.97;;;1.37;54.61
40982;BME280;26708;50.304;19.028;2023-02-11T07:23:24;99410.53;;;1.02;54.62
40982;BME280;26708;50.304;19.028;2023-02-11T07:25:30;99426.38;;;0.92;54.66
40982;BME280;26708;50.304;19.028;2023-02-11T07:27:35;99522.13;;;1.52;54.71
40982;BME280;26708;50.304;19.028;2023-02-11T07:29:43;99427.41;;;0.96;54.79
40982;BME280;26708;50.304;19.028;2023-02-11T07:31:49;99511.13;;;1.56;54.81
40982;BME280;26708;50.304;19.028;2023-02-11T07:33:56;99440.34;;;1.15;54.88
40982;BME280;26708;50.304;19.028;2023-02-11T07:36:04;99373.50;;;0.83;54.76
40982;BME280;26708;50.304;19.028;2023-02-11T07:38:11;99488.59;;;1.52;54.65
40982;BME280;26708;50.304;19.028;2023-02-11T07:40:16;99487.06;;;1.56;54.44
40982;BME280;26708;50.304;19.028;2023-02-11T07:42:21;99462.28;;;1.59;54.42
40982;BME280;26708;50.304;19.028;2023-02-11T07:44:27;99499.75;;;1.88;54.43
40982;BME280;26708;50.304;19.028;2023-02-11T07:46:36;99404.69;;;1.41;54.20
40982;BME280;26708;50.304;19.028;2023-02-11T07:48:43;99363.91;;;1.33;54.15
40982;BME280;26708;50.304;19.028;2023-02-11T07:50:48;99439.19;;;1.80;53.99
40982;BME280;26708;50.304;19.028;2023-02-11T07:52:53;99476.81;;;2.13;53.88
40982;BME280;26708;50.304;19.028;2023-02-11T07:55:00;99385.44;;;1.52;53.40
40982;BME280;26708;50.304;19.028;2023-02-11T07:57:05;99400.75;;;1.86;53.27
40982;BME280;26708;50.304;19.028;2023-02-11T07:59:10;99470.09;;;2.35;52.95
40982;BME280;26708;50.304;19.028;2023-02-11T08:01:17;99471.69;;;2.51;52.83
40982;BME280;26708;50.304;19.028;2023-02-11T08:03:28;99322.63;;;1.69;52.46
40982;BME280;26708;50.304;19.028;2023-02-11T08:05:39;99479.84;;;2.60;52.58
40982;BME280;26708;50.304;19.028;2023-02-11T08:07:44;99382.13;;;2.12;52.35
40982;BME280;26708;50.304;19.028;2023-02-11T08:09:50;99397.97;;;2.00;52.38
40982;BME280;26708;50.304;19.028;2023-02-11T08:11:55;99335.50;;;1.88;52.25
40982;BME280;26708;50.304;19.028;2023-02-11T08:14:01;99457.66;;;2.65;52.04
40982;BME280;26708;50.304;19.028;2023-02-11T08:16:07;99299.72;;;1.77;51.80
40982;BME280;26708;50.304;19.028;2023-02-11T08:18:13;99454.94;;;2.62;51.66
40982;BME280;26708;50.304;19.028;2023-02-11T08:20:20;99469.03;;;2.68;51.66
40982;BME280;26708;50.304;19.028;2023-02-11T08:22:26;99471.75;;;2.52;51.50
40982;BME280;26708;50.304;19.028;2023-02-11T08:24:30;99354.38;;;2.06;51.67
40982;BME280;26708;50.304;19.028;2023-02-11T08:26:35;99488.50;;;2.81;51.53
40982;BME280;26708;50.304;19.028;2023-02-11T08:28:43;99494.63;;;2.83;51.67
40982;BME280;26708;50.304;19.028;2023-02-11T08:30:48;99392.13;;;2.23;51.32
40982;BME280;26708;50.304;19.028;2023-02-11T08:32:53;99409.91;;;2.36;51.26
40982;BME280;26708;50.304;19.028;2023-02-11T08:34:59;99361.53;;;2.32;51.41
40982;BME280;26708;50.304;19.028;2023-02-11T08:37:06;99475.03;;;3.08;51.40
40982;BME280;26708;50.304;19.028;2023-02-11T08:39:13;99349.81;;;2.40;51.21
40982;BME280;26708;50.304;19.028;2023-02-11T08:41:21;99268.66;;;1.94;50.89
40982;BME280;26708;50.304;19.028;2023-02-11T08:43:25;99302.19;;;2.13;50.75
40982;BME280;26708;50.304;19.028;2023-02-11T08:45:30;99455.47;;;3.15;50.76
40982;BME280;26708;50.304;19.028;2023-02-11T08:50:22;99333.16;;;2.53;50.32
40982;BME280;26708;50.304;19.028;2023-02-11T08:52:31;99275.69;;;2.17;50.25
40982;BME280;26708;50.304;19.028;2023-02-11T08:54:37;99344.94;;;2.67;50.04
40982;BME280;26708;50.304;19.028;2023-02-11T08:56:42;99339.59;;;2.62;49.97
40982;BME280;26708;50.304;19.028;2023-02-11T08:58:48;99372.66;;;2.91;49.89
40982;BME280;26708;50.304;19.028;2023-02-11T09:00:54;99337.06;;;2.64;49.84
40982;BME280;26708;50.304;19.028;2023-02-11T09:03:01;99337.44;;;2.73;50.00
40982;BME280;26708;50.304;19.028;2023-02-11T09:05:09;99295.00;;;2.47;49.75
40982;BME280;26708;50.304;19.028;2023-02-11T09:08:03;99424.88;;;3.25;49.74
40982;BME280;26708;50.304;19.028;2023-02-11T09:10:24;99400.53;;;3.20;49.47
40982;BME280;26708;50.304;19.028;2023-02-11T09:20:33;99343.41;;;2.92;48.65
40982;BME280;26708;50.304;19.028;2023-02-11T09:22:43;99450.22;;;3.76;48.73
40982;BME280;26708;50.304;19.028;2023-02-11T09:24:50;99311.50;;;2.92;48.79
40982;BME280;26708;50.304;19.028;2023-02-11T09:26:56;99350.81;;;3.05;48.53
40982;BME280;26708;50.304;19.028;2023-02-11T09:29:02;99525.25;;;3.98;48.56
40982;BME280;26708;50.304;19.028;2023-02-11T09:31:10;99355.03;;;3.03;48.41
40982;BME280;26708;50.304;19.028;2023-02-11T09:33:20;99367.78;;;2.99;48.59
40982;BME280;26708;50.304;19.028;2023-02-11T09:35:25;99259.31;;;2.58;48.88
40982;BME280;26708;50.304;19.028;2023-02-11T09:37:29;99458.13;;;3.59;48.81
40982;BME280;26708;50.304;19.028;2023-02-11T09:39:36;99515.13;;;4.02;48.93
40982;BME280;26708;50.304;19.028;2023-02-11T09:44:36;99455.66;;;3.84;48.50
40982;BME280;26708;50.304;19.028;2023-02-11T09:46:53;99353.19;;;3.21;48.45
40982;BME280;26708;50.304;19.028;2023-02-11T09:48:59;99509.13;;;4.05;48.51
40982;BME280;26708;50.304;19.028;2023-02-11T09:51:13;99456.81;;;3.68;48.74
40982;BME280;26708;50.304;19.028;2023-02-11T09:53:31;99368.09;;;3.28;48.82
40982;BME280;26708;50.304;19.028;2023-02-11T09:55:46;99361.25;;;3.29;48.94
40982;BME280;26708;50.304;19.028;2023-02-11T09:57:56;99478.63;;;3.97;48.89
40982;BME280;26708;50.304;19.028;2023-02-11T10:00:20;99407.72;;;3.49;48.87
40982;BME280;26708;50.304;19.028;2023-02-11T10:02:38;99483.38;;;4.08;48.92
40982;BME280;26708;50.304;19.028;2023-02-11T10:05:10;99448.47;;;3.98;48.77
40982;BME280;26708;50.304;19.028;2023-02-11T10:07:31;99327.13;;;3.39;48.78
40982;BME280;26708;50.304;19.028;2023-02-11T10:09:55;99411.50;;;3.79;48.53
40982;BME280;26708;50.304;19.028;2023-02-11T10:12:31;99457.44;;;4.30;48.58
40982;BME280;26708;50.304;19.028;2023-02-11T10:15:10;99465.81;;;4.46;48.34
40982;BME280;26708;50.304;19.028;2023-02-11T10:17:30;99454.97;;;4.33;48.15
40982;BME280;26708;50.304;19.028;2023-02-11T10:19:56;99433.25;;;4.29;48.15
40982;BME280;26708;50.304;19.028;2023-02-11T10:22:17;99444.00;;;4.40;48.42
40982;BME280;26708;50.304;19.028;2023-02-11T10:24:25;99291.78;;;3.61;48.38
40982;BME280;26708;50.304;19.028;2023-02-11T10:26:33;99393.94;;;4.17;48.39
40982;BME280;26708;50.304;19.028;2023-02-11T10:28:43;99357.16;;;4.02;48.53
40982;BME280;26708;50.304;19.028;2023-02-11T10:30:58;99245.47;;;3.45;48.23
40982;BME280;26708;50.304;19.028;2023-02-11T10:33:14;99392.78;;;4.33;48.26
40982;BME280;26708;50.304;19.028;2023-02-11T10:35:28;99219.25;;;3.36;48.51
40982;BME280;26708;50.304;19.028;2023-02-11T10:37:34;99325.19;;;4.02;48.84
40982;BME280;26708;50.304;19.028;2023-02-11T10:39:40;99229.56;;;3.58;48.84
40982;BME280;26708;50.304;19.028;2023-02-11T10:41:49;99284.75;;;4.05;48.66
40982;BME280;26708;50.304;19.028;2023-02-11T10:43:58;99254.13;;;3.94;48.67
40982;BME280;26708;50.304;19.028;2023-02-11T10:46:16;99144.44;;;3.41;48.59
40982;BME280;26708;50.304;19.028;2023-02-11T10:48:39;99320.75;;;4.48;48.43
40982;BME280;26708;50.304;19.028;2023-02-11T10:50:46;99160.22;;;3.48;48.63
40982;BME280;26708;50.304;19.028;2023-02-11T10:52:51;99265.59;;;4.25;48.63
40982;BME280;26708;50.304;19.028;2023-02-11T10:55:03;99097.75;;;3.38;48.91
40982;BME280;26708;50.304;19.028;2023-02-11T10:57:18;99326.13;;;4.79;48.74
40982;BME280;26708;50.304;19.028;2023-02-11T10:59:28;99292.75;;;4.63;48.39
40982;BME280;26708;50.304;19.028;2023-02-11T11:01:45;99162.59;;;3.92;48.30
40982;BME280;26708;50.304;19.028;2023-02-11T11:03:53;99184.75;;;4.09;48.13
40982;BME280;26708;50.304;19.028;2023-02-11T11:06:05;99064.50;;;3.48;48.24
40982;BME280;26708;50.304;19.028;2023-02-11T11:08:15;99155.00;;;3.97;47.98
40982;BME280;26708;50.304;19.028;2023-02-11T11:10:29;99135.94;;;3.95;47.93
40982;BME280;26708;50.304;19.028;2023-02-11T11:12:47;99121.81;;;3.85;47.65
40982;BME280;26708;50.304;19.028;2023-02-11T11:14:55;99180.47;;;4.11;47.76
40982;BME280;26708;50.304;19.028;2023-02-11T11:17:13;99219.22;;;4.33;48.04
40982;BME280;26708;50.304;19.028;2023-02-11T11:19:23;99324.38;;;4.79;48.33
40982;BME280;26708;50.304;19.028;2023-02-11T11:21:34;99317.50;;;4.80;48.14
40982;BME280;26708;50.304;19.028;2023-02-11T11:23:50;99343.50;;;4.81;48.04
40982;BME280;26708;50.304;19.028;2023-02-11T11:26:02;99205.88;;;3.96;48.27
40982;BME280;26708;50.304;19.028;2023-02-11T11:28:21;99186.88;;;3.96;48.60
40982;BME280;26708;50.304;19.028;2023-02-11T11:30:38;99285.53;;;4.53;48.96
40982;BME280;26708;50.304;19.028;2023-02-11T11:32:48;99349.69;;;4.86;49.38
40982;BME280;26708;50.304;19.028;2023-02-11T11:35:00;99166.44;;;3.78;49.42
40982;BME280;26708;50.304;19.028;2023-02-11T11:37:19;99246.38;;;4.45;49.14
40982;BME280;26708;50.304;19.028;2023-02-11T11:39:29;99247.38;;;4.49;49.23
40982;BME280;26708;50.304;19.028;2023-02-11T11:41:48;99290.50;;;4.73;49.08
40982;BME280;26708;50.304;19.028;2023-02-11T11:44:00;99322.28;;;4.93;49.30
40982;BME280;26708;50.304;19.028;2023-02-11T11:46:08;99190.28;;;4.19;49.63
40982;BME280;26708;50.304;19.028;2023-02-11T11:48:23;99216.94;;;4.17;49.95